sensor_id;sensor_type;location;lat;lon;timestamp;temperature;humidity
28010;DHT22;15334;49.494;8.410;2022-11-15T00:02:00;11.40;99.90
28010;DHT22;15334;49.494;8.410;2022-11-15T00:04:32;11.40;99.90
28010;DHT22;15334;49.494;8.410;2022-11-15T00:07:00;11.40;99.90
28010;DHT22;15334;49.494;8.410;2022-11-15T00:09:29;11.40;99.90
28010;DHT22;15334;49.494;8.410;2022-11-15T00:11:57;11.40;99.90
28010;DHT22;15334;49.494;8.410;2022-11-15T00:14:25;11.40;99.90
28010;DHT22;15334;49.494;8.410;2022-11-15T00:16:53;11.40;99.90
28010;DHT22;15334;49.494;8.410;2022-11-15T00:19:22;11.50;99.90
28010;DHT22;15334;49.494;8.410;2022-11-15T00:21:50;11.50;99.90
28010;DHT22;15334;49.494;8.410;2022-11-15T00:24:18;11.50;99.90
28010;DHT22;15334;49.494;8.410;2022-11-15T00:26:46;11.50;99.90
28010;DHT22;15334;49.494;8.410;2022-11-15T00:29:14;11.50;99.90
28010;DHT22;15334;49.494;8.410;2022-11-15T00:31:42;11.50;99.90
28010;DHT22;15334;49.494;8.410;2022-11-15T00:34:12;11.50;99.90
28010;DHT22;15334;49.494;8.410;2022-11-15T00:36:41;11.50;99.90
28010;DHT22;15334;49.494;8.410;2022-11-15T00:39:10;11.50;99.90
28010;DHT22;15334;49.494;8.410;2022-11-15T00:41:37;11.50;99.90
28010;DHT22;15334;49.494;8.410;2022-11-15T00:44:05;11.50;99.90
28010;DHT22;15334;49.494;8.410;2022-11-15T00:46:36;11.50;99.90
28010;DHT22;15334;49.494;8.410;2022-11-15T00:49:04;11.40;99.90
28010;DHT22;15334;49.494;8.410;2022-11-15T00:51:32;11.40;99.90
28010;DHT22;15334;49.494;8.410;2022-11-15T00:54:02;11.40;99.90
28010;DHT22;15334;49.494;8.410;2022-11-15T00:56:34;11.40;99.90
28010;DHT22;15334;49.494;8.410;2022-11-15T00:59:03;11.30;99.90
28010;DHT22;15334;49.494;8.410;2022-11-15T01:01:31;11.30;99.90
28010;DHT22;15334;49.494;8.410;2022-11-15T01:03:59;11.30;99.90
28010;DHT22;15334;49.494;8.410;2022-11-15T01:06:27;11.30;99.90
28010;DHT22;15334;49.494;8.410;2022-11-15T01:08:58;11.30;99.90
28010;DHT22;15334;49.494;8.410;2022-11-15T01:11:28;11.30;99.90
28010;DHT22;15334;49.494;8.410;2022-11-15T01:13:56;11.30;99.90
28010;DHT22;15334;49.494;8.410;2022-11-15T01:16:24;11.30;99.90
28010;DHT22;15334;49.494;8.410;2022-11-15T01:18:54;11.30;99.90
28010;DHT22;15334;49.494;8.410;2022-11-15T01:21:22;11.30;99.90
28010;DHT22;15334;49.494;8.410;2022-11-15T01:23:54;11.30;99.90
28010;DHT22;15334;49.494;8.410;2022-11-15T01:26:23;11.30;99.90
28010;DHT22;15334;49.494;8.410;2022-11-15T01:28:53;11.40;99.90
28010;DHT22;15334;49.494;8.410;2022-11-15T01:31:21;11.40;99.90
28010;DHT22;15334;49.494;8.410;2022-11-15T01:33:49;11.40;99.90
28010;DHT22;15334;49.494;8.410;2022-11-15T01:36:19;11.40;99.90
28010;DHT22;15334;49.494;8.410;2022-11-15T01:38:53;11.30;99.90
28010;DHT22;15334;49.494;8.410;2022-11-15T01:41:23;11.30;99.90
28010;DHT22;15334;49.494;8.410;2022-11-15T01:43:54;11.30;99.90
28010;DHT22;15334;49.494;8.410;2022-11-15T01:46:27;11.40;99.90
28010;DHT22;15334;49.494;8.410;2022-11-15T01:49:04;11.30;99.90
28010;DHT22;15334;49.494;8.410;2022-11-15T01:51:33;11.30;99.90
28010;DHT22;15334;49.494;8.410;2022-11-15T01:54:06;11.30;99.90
28010;DHT22;15334;49.494;8.410;2022-11-15T01:56:39;11.20;99.90
28010;DHT22;15334;49.494;8.410;2022-11-15T01:59:11;11.10;99.90
28010;DHT22;15334;49.494;8.410;2022-11-15T02:01:40;11.10;99.90
28010;DHT22;15334;49.494;8.410;2022-11-15T02:04:13;11.00;99.90
28010;DHT22;15334;49.494;8.410;2022-11-15T02:06:43;11.00;99.90
28010;DHT22;15334;49.494;8.410;2022-11-15T02:09:12;11.00;99.90
28010;DHT22;15334;49.494;8.410;2022-11-15T02:11:40;10.90;99.90
28010;DHT22;15334;49.494;8.410;2022-11-15T02:14:11;10.90;99.90
28010;DHT22;15334;49.494;8.410;2022-11-15T02:16:45;10.80;99.90
28010;DHT22;15334;49.494;8.410;2022-11-15T02:19:35;10.80;99.90
28010;DHT22;15334;49.494;8.410;2022-11-15T02:22:19;10.70;99.90
28010;DHT22;15334;49.494;8.410;2022-11-15T02:25:03;10.70;99.90
28010;DHT22;15334;49.494;8.410;2022-11-15T02:27:48;10.70;99.90
28010;DHT22;15334;49.494;8.410;2022-11-15T02:30:23;10.70;99.90
28010;DHT22;15334;49.494;8.410;2022-11-15T02:32:56;10.70;99.90
28010;DHT22;15334;49.494;8.410;2022-11-15T02:35:31;10.70;99.90
28010;DHT22;15334;49.494;8.410;2022-11-15T02:38:07;10.70;99.90
28010;DHT22;15334;49.494;8.410;2022-11-15T02:40:40;10.70;99.90
28010;DHT22;15334;49.494;8.410;2022-11-15T02:43:15;10.70;99.90
28010;DHT22;15334;49.494;8.410;2022-11-15T02:46:09;10.70;99.90
28010;DHT22;15334;49.494;8.410;2022-11-15T02:48:41;10.70;99.90
28010;DHT22;15334;49.494;8.410;2022-11-15T02:51:12;10.70;99.90
28010;DHT22;15334;49.494;8.410;2022-11-15T02:53:40;10.70;99.90
28010;DHT22;15334;49.494;8.410;2022-11-15T02:56:09;10.70;99.90
28010;DHT22;15334;49.494;8.410;2022-11-15T02:59:00;10.70;99.90
28010;DHT22;15334;49.494;8.410;2022-11-15T03:01:42;10.70;99.90
28010;DHT22;15334;49.494;8.410;2022-11-15T03:04:23;10.70;99.90
28010;DHT22;15334;49.494;8.410;2022-11-15T03:07:00;10.80;99.90
28010;DHT22;15334;49.494;8.410;2022-11-15T03:09:34;10.80;99.90
28010;DHT22;15334;49.494;8.410;2022-11-15T03:12:07;10.90;99.90
28010;DHT22;15334;49.494;8.410;2022-11-15T03:14:42;11.00;99.90
28010;DHT22;15334;49.494;8.410;2022-11-15T03:17:21;11.00;99.90
28010;DHT22;15334;49.494;8.410;2022-11-15T03:19:54;11.10;99.90
28010;DHT22;15334;49.494;8.410;2022-11-15T03:22:28;11.10;99.90
28010;DHT22;15334;49.494;8.410;2022-11-15T03:25:00;11.10;99.90
28010;DHT22;15334;49.494;8.410;2022-11-15T03:27:34;11.10;99.90
28010;DHT22;15334;49.494;8.410;2022-11-15T03:30:05;11.20;99.90
28010;DHT22;15334;49.494;8.410;2022-11-15T03:32:39;11.10;99.90
28010;DHT22;15334;49.494;8.410;2022-11-15T03:35:12;11.10;99.90
28010;DHT22;15334;49.494;8.410;2022-11-15T03:37:45;11.10;99.90
28010;DHT22;15334;49.494;8.410;2022-11-15T03:40:16;11.10;99.90
28010;DHT22;15334;49.494;8.410;2022-11-15T03:42:51;11.10;99.90
28010;DHT22;15334;49.494;8.410;2022-11-15T03:45:26;11.10;99.90
28010;DHT22;15334;49.494;8.410;2022-11-15T03:48:01;11.10;99.90
28010;DHT22;15334;49.494;8.410;2022-11-15T03:50:30;11.20;99.90
28010;DHT22;15334;49.494;8.410;2022-11-15T03:52:59;11.20;99.90
28010;DHT22;15334;49.494;8.410;2022-11-15T03:55:28;11.20;99.90
28010;DHT22;15334;49.494;8.410;2022-11-15T03:57:58;11.10;99.90
28010;DHT22;15334;49.494;8.410;2022-11-15T04:00:27;11.10;99.90
28010;DHT22;15334;49.494;8.410;2022-11-15T04:02:56;11.10;99.90
28010;DHT22;15334;49.494;8.410;2022-11-15T04:05:25;11.20;99.90
28010;DHT22;15334;49.494;8.410;2022-11-15T04:07:53;11.20;99.90
28010;DHT22;15334;49.494;8.410;2022-11-15T04:10:22;11.20;99.90
28010;DHT22;15334;49.494;8.410;2022-11-15T04:12:50;11.20;99.90
28010;DHT22;15334;49.494;8.410;2022-11-15T04:15:19;11.30;99.90
28010;DHT22;15334;49.494;8.410;2022-11-15T04:17:49;11.30;99.90
28010;DHT22;15334;49.494;8.410;2022-11-15T04:20:19;11.30;99.90
28010;DHT22;15334;49.494;8.410;2022-11-15T04:23:10;11.40;99.90
28010;DHT22;15334;49.494;8.410;2022-11-15T04:25:58;11.40;99.90
28010;DHT22;15334;49.494;8.410;2022-11-15T04:28:27;11.40;99.90
28010;DHT22;15334;49.494;8.410;2022-11-15T04:30:55;11.40;99.90
28010;DHT22;15334;49.494;8.410;2022-11-15T04:33:23;11.40;99.90
28010;DHT22;15334;49.494;8.410;2022-11-15T04:35:51;11.40;99.90
28010;DHT22;15334;49.494;8.410;2022-11-15T04:38:34;11.40;99.90
28010;DHT22;15334;49.494;8.410;2022-11-15T04:41:03;11.40;99.90
28010;DHT22;15334;49.494;8.410;2022-11-15T04:43:31;11.40;99.90
28010;DHT22;15334;49.494;8.410;2022-11-15T04:45:59;11.40;99.90
28010;DHT22;15334;49.494;8.410;2022-11-15T04:48:27;11.40;99.90
28010;DHT22;15334;49.494;8.410;2022-11-15T04:50:55;11.40;99.90
28010;DHT22;15334;49.494;8.410;2022-11-15T04:53:23;11.40;99.90
28010;DHT22;15334;49.494;8.410;2022-11-15T04:55:52;11.40;99.90
28010;DHT22;15334;49.494;8.410;2022-11-15T04:58:20;11.40;99.90
28010;DHT22;15334;49.494;8.410;2022-11-15T05:00:48;11.40;99.90
28010;DHT22;15334;49.494;8.410;2022-11-15T05:03:16;11.40;99.90
28010;DHT22;15334;49.494;8.410;2022-11-15T05:06:02;11.40;99.90
28010;DHT22;15334;49.494;8.410;2022-11-15T05:08:30;11.30;99.90
28010;DHT22;15334;49.494;8.410;2022-11-15T05:10:59;11.30;99.90
28010;DHT22;15334;49.494;8.410;2022-11-15T05:13:27;11.30;99.90
28010;DHT22;15334;49.494;8.410;2022-11-15T05:15:56;11.30;99.90
28010;DHT22;15334;49.494;8.410;2022-11-15T05:18:24;11.30;99.90
28010;DHT22;15334;49.494;8.410;2022-11-15T05:20:52;11.30;99.90
28010;DHT22;15334;49.494;8.410;2022-11-15T05:23:20;11.20;99.90
28010;DHT22;15334;49.494;8.410;2022-11-15T05:25:48;11.10;99.90
28010;DHT22;15334;49.494;8.410;2022-11-15T05:28:17;11.10;99.90
28010;DHT22;15334;49.494;8.410;2022-11-15T05:30:51;11.20;99.90
28010;DHT22;15334;49.494;8.410;2022-11-15T05:33:19;11.10;99.90
28010;DHT22;15334;49.494;8.410;2022-11-15T05:35:54;11.10;99.90
28010;DHT22;15334;49.494;8.410;2022-11-15T05:38:23;11.10;99.90
28010;DHT22;15334;49.494;8.410;2022-11-15T05:40:51;11.00;99.90
28010;DHT22;15334;49.494;8.410;2022-11-15T05:43:21;11.00;99.90
28010;DHT22;15334;49.494;8.410;2022-11-15T05:45:50;11.00;99.90
28010;DHT22;15334;49.494;8.410;2022-11-15T05:48:18;11.00;99.90
28010;DHT22;15334;49.494;8.410;2022-11-15T05:50:47;11.00;99.90
28010;DHT22;15334;49.494;8.410;2022-11-15T05:53:16;11.00;99.90
28010;DHT22;15334;49.494;8.410;2022-11-15T05:55:46;11.00;99.90
28010;DHT22;15334;49.494;8.410;2022-11-15T05:58:17;11.00;99.90
28010;DHT22;15334;49.494;8.410;2022-11-15T06:00:47;11.00;99.90
28010;DHT22;15334;49.494;8.410;2022-11-15T06:03:15;10.90;99.90
28010;DHT22;15334;49.494;8.410;2022-11-15T06:05:42;10.80;99.90
28010;DHT22;15334;49.494;8.410;2022-11-15T06:08:10;10.70;99.90
28010;DHT22;15334;49.494;8.410;2022-11-15T06:10:38;10.70;99.90
28010;DHT22;15334;49.494;8.410;2022-11-15T06:13:06;10.60;99.90
28010;DHT22;15334;49.494;8.410;2022-11-15T06:15:34;10.60;99.90
28010;DHT22;15334;49.494;8.410;2022-11-15T06:18:04;10.50;99.90
28010;DHT22;15334;49.494;8.410;2022-11-15T06:20:32;10.50;99.90
28010;DHT22;15334;49.494;8.410;2022-11-15T06:23:02;10.50;99.90
28010;DHT22;15334;49.494;8.410;2022-11-15T06:25:31;10.50;99.90
28010;DHT22;15334;49.494;8.410;2022-11-15T06:28:00;10.50;99.90
28010;DHT22;15334;49.494;8.410;2022-11-15T06:30:28;10.40;99.90
28010;DHT22;15334;49.494;8.410;2022-11-15T06:33:00;10.50;99.90
28010;DHT22;15334;49.494;8.410;2022-11-15T06:35:32;10.50;99.90
28010;DHT22;15334;49.494;8.410;2022-11-15T06:38:05;10.50;99.90
28010;DHT22;15334;49.494;8.410;2022-11-15T06:40:34;10.50;99.90
28010;DHT22;15334;49.494;8.410;2022-11-15T06:43:03;10.50;99.90
28010;DHT22;15334;49.494;8.410;2022-11-15T06:45:32;10.50;99.90
28010;DHT22;15334;49.494;8.410;2022-11-15T06:48:00;10.60;99.90
28010;DHT22;15334;49.494;8.410;2022-11-15T06:50:29;10.60;99.90
28010;DHT22;15334;49.494;8.410;2022-11-15T06:53:03;10.60;99.90
28010;DHT22;15334;49.494;8.410;2022-11-15T06:55:31;10.60;99.90
28010;DHT22;15334;49.494;8.410;2022-11-15T06:57:59;10.60;99.90
28010;DHT22;15334;49.494;8.410;2022-11-15T07:00:27;10.60;99.90
28010;DHT22;15334;49.494;8.410;2022-11-15T07:02:59;10.60;99.90
28010;DHT22;15334;49.494;8.410;2022-11-15T07:05:29;10.60;99.90
28010;DHT22;15334;49.494;8.410;2022-11-15T07:07:58;10.60;99.90
28010;DHT22;15334;49.494;8.410;2022-11-15T07:10:28;10.60;99.90
28010;DHT22;15334;49.494;8.410;2022-11-15T07:12:56;10.60;99.90
28010;DHT22;15334;49.494;8.410;2022-11-15T07:15:25;10.60;99.90
28010;DHT22;15334;49.494;8.410;2022-11-15T07:17:53;10.60;99.90
28010;DHT22;15334;49.494;8.410;2022-11-15T07:20:21;10.70;99.90
28010;DHT22;15334;49.494;8.410;2022-11-15T07:22:51;10.70;99.90
28010;DHT22;15334;49.494;8.410;2022-11-15T07:25:19;10.80;99.90
28010;DHT22;15334;49.494;8.410;2022-11-15T07:27:54;10.80;99.90
28010;DHT22;15334;49.494;8.410;2022-11-15T07:30:23;10.80;99.90
28010;DHT22;15334;49.494;8.410;2022-11-15T07:32:53;10.80;99.90
28010;DHT22;15334;49.494;8.410;2022-11-15T07:35:21;10.80;99.90
28010;DHT22;15334;49.494;8.410;2022-11-15T07:37:58;10.90;99.90
28010;DHT22;15334;49.494;8.410;2022-11-15T07:40:30;10.90;99.90
28010;DHT22;15334;49.494;8.410;2022-11-15T07:43:02;10.90;99.90
28010;DHT22;15334;49.494;8.410;2022-11-15T07:45:46;11.00;99.90
28010;DHT22;15334;49.494;8.410;2022-11-15T07:48:28;11.00;99.90
28010;DHT22;15334;49.494;8.410;2022-11-15T07:51:11;11.10;99.90
28010;DHT22;15334;49.494;8.410;2022-11-15T07:53:42;11.20;99.90
28010;DHT22;15334;49.494;8.410;2022-11-15T07:56:11;11.20;99.90
28010;DHT22;15334;49.494;8.410;2022-11-15T07:58:42;11.30;99.90
28010;DHT22;15334;49.494;8.410;2022-11-15T08:01:17;11.30;99.90
28010;DHT22;15334;49.494;8.410;2022-11-15T08:03:45;11.30;99.90
28010;DHT22;15334;49.494;8.410;2022-11-15T08:06:13;11.40;99.90
28010;DHT22;15334;49.494;8.410;2022-11-15T08:08:43;11.40;99.90
28010;DHT22;15334;49.494;8.410;2022-11-15T08:11:11;11.50;99.90
28010;DHT22;15334;49.494;8.410;2022-11-15T08:13:39;11.50;99.90
28010;DHT22;15334;49.494;8.410;2022-11-15T08:16:09;11.60;99.90
28010;DHT22;15334;49.494;8.410;2022-11-15T08:18:38;11.60;99.90
28010;DHT22;15334;49.494;8.410;2022-11-15T08:21:12;11.70;99.90
28010;DHT22;15334;49.494;8.410;2022-11-15T08:23:51;11.70;99.90
28010;DHT22;15334;49.494;8.410;2022-11-15T08:26:45;11.60;99.90
28010;DHT22;15334;49.494;8.410;2022-11-15T08:29:28;11.70;99.90
28010;DHT22;15334;49.494;8.410;2022-11-15T08:32:00;11.70;99.90
28010;DHT22;15334;49.494;8.410;2022-11-15T08:34:37;11.70;99.90
28010;DHT22;15334;49.494;8.410;2022-11-15T08:37:10;11.70;99.90
28010;DHT22;15334;49.494;8.410;2022-11-15T08:39:40;11.70;99.90
28010;DHT22;15334;49.494;8.410;2022-11-15T08:42:13;11.70;99.90
28010;DHT22;15334;49.494;8.410;2022-11-15T08:44:56;11.80;99.90
28010;DHT22;15334;49.494;8.410;2022-11-15T08:47:34;11.80;99.90
28010;DHT22;15334;49.494;8.410;2022-11-15T08:50:07;11.80;99.90
28010;DHT22;15334;49.494;8.410;2022-11-15T08:52:36;11.90;99.90
28010;DHT22;15334;49.494;8.410;2022-11-15T08:55:08;11.80;99.90
28010;DHT22;15334;49.494;8.410;2022-11-15T08:57:38;11.80;99.90
28010;DHT22;15334;49.494;8.410;2022-11-15T09:00:07;11.80;99.90
28010;DHT22;15334;49.494;8.410;2022-11-15T09:02:41;11.80;99.90
28010;DHT22;15334;49.494;8.410;2022-11-15T09:05:12;11.80;99.90
28010;DHT22;15334;49.494;8.410;2022-11-15T09:07:42;11.80;99.90
28010;DHT22;15334;49.494;8.410;2022-11-15T09:10:13;11.80;99.90
28010;DHT22;15334;49.494;8.410;2022-11-15T09:12:41;11.90;99.90
28010;DHT22;15334;49.494;8.410;2022-11-15T09:15:13;11.90;99.90
28010;DHT22;15334;49.494;8.410;2022-11-15T09:18:20;12.00;99.90
28010;DHT22;15334;49.494;8.410;2022-11-15T09:21:02;12.00;99.90
28010;DHT22;15334;49.494;8.410;2022-11-15T09:23:31;12.00;99.90
28010;DHT22;15334;49.494;8.410;2022-11-15T09:26:26;12.00;99.90
28010;DHT22;15334;49.494;8.410;2022-11-15T09:29:26;12.00;99.90
28010;DHT22;15334;49.494;8.410;2022-11-15T09:32:09;12.00;99.90
28010;DHT22;15334;49.494;8.410;2022-11-15T09:34:39;12.00;99.90
28010;DHT22;15334;49.494;8.410;2022-11-15T09:37:33;12.10;99.90
28010;DHT22;15334;49.494;8.410;2022-11-15T09:40:01;12.10;99.90
28010;DHT22;15334;49.494;8.410;2022-11-15T09:42:46;12.20;99.90
28010;DHT22;15334;49.494;8.410;2022-11-15T09:45:20;12.20;99.90
28010;DHT22;15334;49.494;8.410;2022-11-15T09:48:08;12.30;99.90
28010;DHT22;15334;49.494;8.410;2022-11-15T09:50:43;12.30;99.90
28010;DHT22;15334;49.494;8.410;2022-11-15T09:53:15;12.30;99.90
28010;DHT22;15334;49.494;8.410;2022-11-15T09:56:18;12.40;99.90
28010;DHT22;15334;49.494;8.410;2022-11-15T09:58:56;12.40;99.90
28010;DHT22;15334;49.494;8.410;2022-11-15T10:01:36;12.50;99.90
28010;DHT22;15334;49.494;8.410;2022-11-15T10:04:07;12.50;99.90
28010;DHT22;15334;49.494;8.410;2022-11-15T10:06:44;12.60;99.90
28010;DHT22;15334;49.494;8.410;2022-11-15T10:09:16;12.60;99.90
28010;DHT22;15334;49.494;8.410;2022-11-15T10:11:50;12.70;99.90
28010;DHT22;15334;49.494;8.410;2022-11-15T10:14:23;12.60;99.90
28010;DHT22;15334;49.494;8.410;2022-11-15T10:17:18;12.70;99.90
28010;DHT22;15334;49.494;8.410;2022-11-15T10:20:00;12.80;99.90
28010;DHT22;15334;49.494;8.410;2022-11-15T10:22:38;12.80;99.90
28010;DHT22;15334;49.494;8.410;2022-11-15T10:25:17;12.80;99.90
28010;DHT22;15334;49.494;8.410;2022-11-15T10:27:52;12.80;99.90
28010;DHT22;15334;49.494;8.410;2022-11-15T10:30:28;12.70;99.90
28010;DHT22;15334;49.494;8.410;2022-11-15T10:32:58;12.80;99.90
28010;DHT22;15334;49.494;8.410;2022-11-15T10:35:30;12.80;99.90
28010;DHT22;15334;49.494;8.410;2022-11-15T10:38:05;12.90;99.90
28010;DHT22;15334;49.494;8.410;2022-11-15T10:40:35;12.90;99.90
28010;DHT22;15334;49.494;8.410;2022-11-15T10:43:14;12.90;99.90
28010;DHT22;15334;49.494;8.410;2022-11-15T10:45:44;12.90;99.90
28010;DHT22;15334;49.494;8.410;2022-11-15T10:48:23;13.00;99.90
28010;DHT22;15334;49.494;8.410;2022-11-15T10:50:52;13.00;99.90
28010;DHT22;15334;49.494;8.410;2022-11-15T10:53:29;13.00;99.90
28010;DHT22;15334;49.494;8.410;2022-11-15T10:56:02;13.10;99.90
28010;DHT22;15334;49.494;8.410;2022-11-15T10:58:39;13.10;99.90
28010;DHT22;15334;49.494;8.410;2022-11-15T11:01:12;13.20;99.90
28010;DHT22;15334;49.494;8.410;2022-11-15T11:03:42;13.10;99.90
28010;DHT22;15334;49.494;8.410;2022-11-15T11:06:15;13.10;99.90
28010;DHT22;15334;49.494;8.410;2022-11-15T11:08:57;13.20;99.90
28010;DHT22;15334;49.494;8.410;2022-11-15T11:11:44;13.20;99.90
28010;DHT22;15334;49.494;8.410;2022-11-15T11:14:15;13.30;99.90
28010;DHT22;15334;49.494;8.410;2022-11-15T11:16:50;13.30;99.90
28010;DHT22;15334;49.494;8.410;2022-11-15T11:19:42;13.40;99.90
28010;DHT22;15334;49.494;8.410;2022-11-15T11:22:19;13.50;99.90
28010;DHT22;15334;49.494;8.410;2022-11-15T11:24:55;13.70;99.90
28010;DHT22;15334;49.494;8.410;2022-11-15T11:27:35;13.80;99.90
28010;DHT22;15334;49.494;8.410;2022-11-15T11:30:09;14.10;99.90
28010;DHT22;15334;49.494;8.410;2022-11-15T11:32:54;14.40;99.90
28010;DHT22;15334;49.494;8.410;2022-11-15T11:35:28;14.60;99.90
28010;DHT22;15334;49.494;8.410;2022-11-15T11:38:17;14.80;99.90
28010;DHT22;15334;49.494;8.410;2022-11-15T11:40:58;14.80;99.90
28010;DHT22;15334;49.494;8.410;2022-11-15T11:43:36;14.80;99.90
28010;DHT22;15334;49.494;8.410;2022-11-15T11:49:04;15.00;99.90
28010;DHT22;15334;49.494;8.410;2022-11-15T11:51:39;15.10;99.90
28010;DHT22;15334;49.494;8.410;2022-11-15T11:54:12;15.10;99.90
28010;DHT22;15334;49.494;8.410;2022-11-15T11:56:43;15.10;99.90
28010;DHT22;15334;49.494;8.410;2022-11-15T11:59:19;15.00;99.90
28010;DHT22;15334;49.494;8.410;2022-11-15T12:01:49;14.90;99.90
28010;DHT22;15334;49.494;8.410;2022-11-15T12:04:23;14.70;99.90
28010;DHT22;15334;49.494;8.410;2022-11-15T12:06:57;14.60;99.90
28010;DHT22;15334;49.494;8.410;2022-11-15T12:09:33;14.60;99.90
28010;DHT22;15334;49.494;8.410;2022-11-15T12:12:12;14.70;99.90
28010;DHT22;15334;49.494;8.410;2022-11-15T12:14:47;14.70;99.90
28010;DHT22;15334;49.494;8.410;2022-11-15T12:17:19;14.60;99.90
28010;DHT22;15334;49.494;8.410;2022-11-15T12:19:51;14.60;99.90
28010;DHT22;15334;49.494;8.410;2022-11-15T12:22:22;14.50;99.90
28010;DHT22;15334;49.494;8.410;2022-11-15T12:24:54;14.60;99.90
28010;DHT22;15334;49.494;8.410;2022-11-15T12:27:31;14.70;99.90
28010;DHT22;15334;49.494;8.410;2022-11-15T12:30:07;14.70;99.90
28010;DHT22;15334;49.494;8.410;2022-11-15T12:32:38;14.80;99.90
28010;DHT22;15334;49.494;8.410;2022-11-15T12:35:26;14.80;99.90
28010;DHT22;15334;49.494;8.410;2022-11-15T12:37:55;14.60;99.90
28010;DHT22;15334;49.494;8.410;2022-11-15T12:40:35;14.60;99.90
28010;DHT22;15334;49.494;8.410;2022-11-15T12:43:36;14.50;99.90
28010;DHT22;15334;49.494;8.410;2022-11-15T12:46:10;14.50;99.90
28010;DHT22;15334;49.494;8.410;2022-11-15T12:48:53;14.50;99.90
28010;DHT22;15334;49.494;8.410;2022-11-15T12:54:57;14.40;99.90
28010;DHT22;15334;49.494;8.410;2022-11-15T12:57:34;14.30;99.90
28010;DHT22;15334;49.494;8.410;2022-11-15T13:00:36;14.20;99.90
28010;DHT22;15334;49.494;8.410;2022-11-15T13:03:25;14.20;99.90
28010;DHT22;15334;49.494;8.410;2022-11-15T13:05:58;14.20;99.90
28010;DHT22;15334;49.494;8.410;2022-11-15T13:08:47;14.20;99.90
28010;DHT22;15334;49.494;8.410;2022-11-15T13:11:50;14.20;99.90
28010;DHT22;15334;49.494;8.410;2022-11-15T13:14:41;14.40;99.90
28010;DHT22;15334;49.494;8.410;2022-11-15T13:17:34;14.40;99.90
28010;DHT22;15334;49.494;8.410;2022-11-15T13:20:26;14.40;99.90
28010;DHT22;15334;49.494;8.410;2022-11-15T13:23:02;14.40;99.90
28010;DHT22;15334;49.494;8.410;2022-11-15T13:26:01;14.40;99.90
28010;DHT22;15334;49.494;8.410;2022-11-15T13:28:34;14.50;99.90
28010;DHT22;15334;49.494;8.410;2022-11-15T13:31:18;14.50;99.90
28010;DHT22;15334;49.494;8.410;2022-11-15T13:33:47;14.50;99.90
28010;DHT22;15334;49.494;8.410;2022-11-15T13:36:19;14.50;99.90
28010;DHT22;15334;49.494;8.410;2022-11-15T13:38:55;14.50;99.90
28010;DHT22;15334;49.494;8.410;2022-11-15T13:41:30;14.60;99.90
28010;DHT22;15334;49.494;8.410;2022-11-15T13:43:59;14.70;99.90
28010;DHT22;15334;49.494;8.410;2022-11-15T13:46:29;14.60;99.90
28010;DHT22;15334;49.494;8.410;2022-11-15T13:49:01;14.70;99.90
28010;DHT22;15334;49.494;8.410;2022-11-15T13:51:36;14.70;99.90
28010;DHT22;15334;49.494;8.410;2022-11-15T13:54:12;14.70;99.90
28010;DHT22;15334;49.494;8.410;2022-11-15T13:56:45;14.60;99.90
28010;DHT22;15334;49.494;8.410;2022-11-15T13:59:16;14.50;99.90
28010;DHT22;15334;49.494;8.410;2022-11-15T14:01:45;14.50;99.90
28010;DHT22;15334;49.494;8.410;2022-11-15T14:04:17;14.50;99.90
28010;DHT22;15334;49.494;8.410;2022-11-15T14:06:49;14.40;99.90
28010;DHT22;15334;49.494;8.410;2022-11-15T14:09:39;14.30;99.90
28010;DHT22;15334;49.494;8.410;2022-11-15T14:12:30;14.40;99.90
28010;DHT22;15334;49.494;8.410;2022-11-15T14:17:43;14.20;99.90
28010;DHT22;15334;49.494;8.410;2022-11-15T14:20:35;14.20;99.90
28010;DHT22;15334;49.494;8.410;2022-11-15T14:23:05;14.20;99.90
28010;DHT22;15334;49.494;8.410;2022-11-15T14:25:52;14.10;99.90
28010;DHT22;15334;49.494;8.410;2022-11-15T14:28:33;14.20;99.90
28010;DHT22;15334;49.494;8.410;2022-11-15T14:31:10;14.20;99.90
28010;DHT22;15334;49.494;8.410;2022-11-15T14:33:39;14.10;99.90
28010;DHT22;15334;49.494;8.410;2022-11-15T14:36:11;14.10;99.90
28010;DHT22;15334;49.494;8.410;2022-11-15T14:38:40;14.10;99.90
28010;DHT22;15334;49.494;8.410;2022-11-15T14:41:17;14.10;99.90
28010;DHT22;15334;49.494;8.410;2022-11-15T14:43:48;14.10;99.90
28010;DHT22;15334;49.494;8.410;2022-11-15T14:46:16;14.00;99.90
28010;DHT22;15334;49.494;8.410;2022-11-15T14:48:46;14.00;99.90
28010;DHT22;15334;49.494;8.410;2022-11-15T14:51:18;14.00;99.90
28010;DHT22;15334;49.494;8.410;2022-11-15T14:53:48;14.00;99.90
28010;DHT22;15334;49.494;8.410;2022-11-15T14:56:15;14.00;99.90
28010;DHT22;15334;49.494;8.410;2022-11-15T14:58:43;13.90;99.90
28010;DHT22;15334;49.494;8.410;2022-11-15T15:01:17;13.90;99.90
28010;DHT22;15334;49.494;8.410;2022-11-15T15:03:47;13.90;99.90
28010;DHT22;15334;49.494;8.410;2022-11-15T15:06:15;13.90;99.90
28010;DHT22;15334;49.494;8.410;2022-11-15T15:08:46;13.90;99.90
28010;DHT22;15334;49.494;8.410;2022-11-15T15:11:16;13.80;99.90
28010;DHT22;15334;49.494;8.410;2022-11-15T15:13:47;13.80;99.90
28010;DHT22;15334;49.494;8.410;2022-11-15T15:16:16;13.80;99.90
28010;DHT22;15334;49.494;8.410;2022-11-15T15:18:44;13.80;99.90
28010;DHT22;15334;49.494;8.410;2022-11-15T15:21:19;13.70;99.90
28010;DHT22;15334;49.494;8.410;2022-11-15T15:23:48;13.70;99.90
28010;DHT22;15334;49.494;8.410;2022-11-15T15:26:17;13.70;99.90
28010;DHT22;15334;49.494;8.410;2022-11-15T15:28:45;13.70;99.90
28010;DHT22;15334;49.494;8.410;2022-11-15T15:31:16;13.70;99.90
28010;DHT22;15334;49.494;8.410;2022-11-15T15:33:44;13.60;99.90
28010;DHT22;15334;49.494;8.410;2022-11-15T15:36:14;13.50;99.90
28010;DHT22;15334;49.494;8.410;2022-11-15T15:38:44;13.50;99.90
28010;DHT22;15334;49.494;8.410;2022-11-15T15:41:16;13.50;99.90
28010;DHT22;15334;49.494;8.410;2022-11-15T15:43:44;13.40;99.90
28010;DHT22;15334;49.494;8.410;2022-11-15T15:46:14;13.30;99.90
28010;DHT22;15334;49.494;8.410;2022-11-15T15:48:44;13.30;99.90
28010;DHT22;15334;49.494;8.410;2022-11-15T15:51:15;13.30;99.90
28010;DHT22;15334;49.494;8.410;2022-11-15T15:53:48;13.20;99.90
28010;DHT22;15334;49.494;8.410;2022-11-15T15:56:29;13.20;99.90
28010;DHT22;15334;49.494;8.410;2022-11-15T15:58:57;13.10;99.90
28010;DHT22;15334;49.494;8.410;2022-11-15T16:01:25;13.10;99.90
28010;DHT22;15334;49.494;8.410;2022-11-15T16:03:54;13.00;99.90
28010;DHT22;15334;49.494;8.410;2022-11-15T16:06:36;12.90;99.90
28010;DHT22;15334;49.494;8.410;2022-11-15T16:09:05;12.90;99.90
28010;DHT22;15334;49.494;8.410;2022-11-15T16:11:43;12.90;99.90
28010;DHT22;15334;49.494;8.410;2022-11-15T16:14:11;12.80;99.90
28010;DHT22;15334;49.494;8.410;2022-11-15T16:16:40;12.80;99.90
28010;DHT22;15334;49.494;8.410;2022-11-15T16:19:12;12.80;99.90